Time;durP1;ratioP1;P1;durP2;ratioP2;P2;SDS_P1;SDS_P2;PMS_P1;PMS_P2;Temp;Humidity;BMP_temperature;BMP_pressure;BME280_temperature;BME280_humidity;BME280_pressure;Samples;Min_cycle;Max_cycle;Signal;HPM_P1;HPM_P2
2022/07/16 00:03:17;;;;;;;103.15;97.95;;;;;;;;;;5044455;28;20017;-74
2022/07/16 00:05:43;;;;;;;113.78;108.00;;;;;;;;;;5043965;28;20028;-75
2022/07/16 00:08:08;;;;;;;124.00;117.70;;;;;;;;;;5044228;28;20434;-74
2022/07/16 00:10:34;;;;;;;151.88;144.18;;;;;;;;;;5043965;28;20047;-74
2022/07/16 00:13:02;;;;;;;164.77;156.50;;;;;;;;;;5043755;28;20035;-74
2022/07/16 00:15:28;;;;;;;163.32;155.07;;;;;;;;;;5043317;28;20757;-74
2022/07/16 00:19:15;;;;;;;173.73;164.93;;;;;;;;;;5044008;28;20060;-75
2022/07/16 00:20:39;;;;;;;156.15;148.13;;;;;;;;;;5044062;28;20589;-73
2022/07/16 00:23:06;;;;;;;168.95;160.45;;;;;;;;;;5043499;28;20139;-74
2022/07/16 00:25:33;;;;;;;179.98;171.00;;;;;;;;;;5043115;28;20143;-75
2022/07/16 00:27:58;;;;;;;162.68;154.50;;;;;;;;;;5044056;28;20466;-74
2022/07/16 00:30:23;;;;;;;144.52;137.25;;;;;;;;;;5043552;28;20143;-75
2022/07/16 00:32:49;;;;;;;157.23;149.32;;;;;;;;;;5042686;28;20078;-71
2022/07/16 00:35:14;;;;;;;152.35;144.68;;;;;;;;;;5043332;28;20020;-68
2022/07/16 00:37:39;;;;;;;132.45;125.75;;;;;;;;;;5043665;28;20029;-69
2022/07/16 00:40:06;;;;;;;128.82;122.35;;;;;;;;;;5048348;28;20816;-70
2022/07/16 00:42:31;;;;;;;194.95;185.13;;;;;;;;;;5046725;28;20122;-70
2022/07/16 00:44:57;;;;;;;155.27;147.38;;;;;;;;;;5047619;28;20053;-70
2022/07/16 00:47:22;;;;;;;243.10;231.07;;;;;;;;;;5047088;28;20031;-71
2022/07/16 00:49:47;;;;;;;198.63;188.57;;;;;;;;;;5047506;28;20044;-70
2022/07/16 00:52:13;;;;;;;165.85;157.35;;;;;;;;;;5048049;28;20466;-71
2022/07/16 00:54:38;;;;;;;253.75;241.05;;;;;;;;;;5046822;28;20108;-71
2022/07/16 00:57:04;;;;;;;265.27;252.07;;;;;;;;;;5047263;28;20441;-71
2022/07/16 00:59:29;;;;;;;265.08;251.88;;;;;;;;;;5045758;28;20036;-70
2022/07/16 01:01:54;;;;;;;265.30;252.00;;;;;;;;;;5046348;28;20585;-70
2022/07/16 01:04:20;;;;;;;257.45;244.50;;;;;;;;;;5046773;28;20128;-70
2022/07/16 01:06:46;;;;;;;244.63;232.32;;;;;;;;;;5046822;28;20061;-71
2022/07/16 01:09:12;;;;;;;237.63;225.68;;;;;;;;;;5047745;28;20025;-70
2022/07/16 01:11:38;;;;;;;234.55;222.85;;;;;;;;;;5047257;28;20087;-70
2022/07/16 01:14:05;;;;;;;189.15;179.88;;;;;;;;;;5028934;28;20021;-70
2022/07/16 01:16:31;;;;;;;242.57;230.30;;;;;;;;;;5045349;28;20435;-69
2022/07/16 01:18:56;;;;;;;222.98;211.85;;;;;;;;;;5046925;28;20098;-70
2022/07/16 01:21:21;;;;;;;218.48;207.60;;;;;;;;;;5046698;28;20087;-70
2022/07/16 01:23:49;;;;;;;240.70;228.55;;;;;;;;;;5046561;28;20033;-70
2022/07/16 01:26:14;;;;;;;207.10;196.70;;;;;;;;;;5045939;28;20048;-70
2022/07/16 01:28:40;;;;;;;219.10;208.15;;;;;;;;;;5046581;28;20557;-70
2022/07/16 01:31:06;;;;;;;225.48;214.20;;;;;;;;;;5044951;28;20021;-70
2022/07/16 01:33:34;;;;;;;208.43;197.80;;;;;;;;;;5045516;28;20040;-69
2022/07/16 01:36:03;;;;;;;156.63;148.70;;;;;;;;;;5046644;28;20033;-70
2022/07/16 01:38:29;;;;;;;185.73;176.48;;;;;;;;;;5046133;28;20033;-69
2022/07/16 01:40:55;;;;;;;96.07;91.22;;;;;;;;;;5045920;28;20025;-69
2022/07/16 01:43:22;;;;;;;138.55;131.55;;;;;;;;;;5044808;28;20619;-69
2022/07/16 01:45:49;;;;;;;96.40;91.55;;;;;;;;;;5046667;28;20500;-69
2022/07/16 01:48:15;;;;;;;93.95;89.20;;;;;;;;;;5045998;28;20052;-70
2022/07/16 01:50:42;;;;;;;58.53;55.55;;;;;;;;;;5046174;28;20052;-69
2022/07/16 01:53:08;;;;;;;49.22;46.72;;;;;;;;;;5046316;28;20039;-69
2022/07/16 01:55:35;;;;;;;48.08;45.63;;;;;;;;;;5045787;28;20056;-70
2022/07/16 01:58:05;;;;;;;37.15;35.25;;;;;;;;;;5037067;28;20099;-69
2022/07/16 02:00:31;;;;;;;50.47;47.88;;;;;;;;;;5046475;28;20032;-70
2022/07/16 02:02:57;;;;;;;43.83;41.60;;;;;;;;;;5029240;28;20053;-70
2022/07/16 02:05:23;;;;;;;47.40;44.97;;;;;;;;;;5046243;28;20083;-69
2022/07/16 02:07:49;;;;;;;37.97;36.03;;;;;;;;;;5046998;28;20047;-70
2022/07/16 02:10:14;;;;;;;38.92;36.95;;;;;;;;;;5046775;28;20438;-69
2022/07/16 02:12:40;;;;;;;37.65;35.75;;;;;;;;;;5046014;28;20037;-69
2022/07/16 02:15:06;;;;;;;40.40;38.30;;;;;;;;;;5044976;28;20116;-70
2022/07/16 02:17:32;;;;;;;42.45;40.25;;;;;;;;;;5044898;28;20052;-69
2022/07/16 02:19:57;;;;;;;43.38;41.17;;;;;;;;;;5046808;28;20032;-70
2022/07/16 02:22:22;;;;;;;43.63;41.42;;;;;;;;;;5046206;28;20025;-69
2022/07/16 02:24:48;;;;;;;40.60;38.53;;;;;;;;;;5045941;28;20121;-69
2022/07/16 02:27:13;;;;;;;40.53;38.42;;;;;;;;;;5046170;28;20344;-70
2022/07/16 02:29:39;;;;;;;30.75;29.13;;;;;;;;;;5045893;28;20382;-70
2022/07/16 02:32:04;;;;;;;37.55;35.65;;;;;;;;;;5045558;28;20048;-70
2022/07/16 02:34:29;;;;;;;37.80;35.85;;;;;;;;;;5045551;28;20447;-71
2022/07/16 02:36:55;;;;;;;33.40;31.40;;;;;;;;;;5045105;28;20025;-71
2022/07/16 02:39:21;;;;;;;37.33;35.40;;;;;;;;;;5045596;28;20087;-71
2022/07/16 02:41:46;;;;;;;33.00;31.27;;;;;;;;;;5045346;28;20033;-71
2022/07/16 02:44:11;;;;;;;35.33;33.50;;;;;;;;;;5045700;28;20121;-71
2022/07/16 02:46:37;;;;;;;32.13;30.45;;;;;;;;;;5044084;28;20394;-70
2022/07/16 02:49:02;;;;;;;30.35;28.77;;;;;;;;;;5045489;28;20097;-71
2022/07/16 02:51:27;;;;;;;39.70;37.70;;;;;;;;;;5044334;28;20045;-70
2022/07/16 02:53:53;;;;;;;40.47;38.40;;;;;;;;;;5045018;28;20043;-71
2022/07/16 02:56:18;;;;;;;40.30;38.20;;;;;;;;;;5045500;28;20025;-71
2022/07/16 02:58:43;;;;;;;36.03;34.13;;;;;;;;;;5044390;28;20035;-71
2022/07/16 03:01:09;;;;;;;31.50;29.85;;;;;;;;;;5045115;28;20031;-71
2022/07/16 03:03:34;;;;;;;40.65;38.58;;;;;;;;;;5044175;28;20017;-72
2022/07/16 03:05:59;;;;;;;33.30;31.58;;;;;;;;;;5044843;28;20585;-72
2022/07/16 03:08:25;;;;;;;36.45;34.47;;;;;;;;;;5045600;28;20086;-72
2022/07/16 03:10:50;;;;;;;30.55;28.73;;;;;;;;;;5044831;28;20025;-72
2022/07/16 03:13:16;;;;;;;30.85;29.25;;;;;;;;;;5045518;28;20117;-73
2022/07/16 03:15:41;;;;;;;29.23;27.65;;;;;;;;;;5044242;28;20056;-72
2022/07/16 03:18:06;;;;;;;28.65;27.15;;;;;;;;;;5046652;28;20044;-72
2022/07/16 03:20:32;;;;;;;27.85;26.35;;;;;;;;;;5046502;28;20029;-72
2022/07/16 03:22:57;;;;;;;29.27;27.73;;;;;;;;;;5045338;28;20031;-72
2022/07/16 03:25:23;;;;;;;25.02;23.70;;;;;;;;;;5047194;28;20036;-73
2022/07/16 03:27:48;;;;;;;36.35;34.42;;;;;;;;;;5043958;28;20056;-73
2022/07/16 03:30:14;;;;;;;40.33;38.22;;;;;;;;;;5044891;28;20021;-72
2022/07/16 03:32:40;;;;;;;52.42;49.75;;;;;;;;;;5042950;28;20037;-72
2022/07/16 03:35:06;;;;;;;54.55;51.72;;;;;;;;;;5044623;28;20025;-72
2022/07/16 03:37:32;;;;;;;67.80;64.35;;;;;;;;;;5043744;28;20071;-72
2022/07/16 03:39:58;;;;;;;45.05;42.75;;;;;;;;;;5027073;28;20028;-73
2022/07/16 03:42:23;;;;;;;61.58;58.42;;;;;;;;;;5044697;28;20366;-72
2022/07/16 03:44:48;;;;;;;40.80;38.65;;;;;;;;;;5044417;28;20037;-73
2022/07/16 03:47:14;;;;;;;29.38;27.77;;;;;;;;;;5043196;28;20043;-73
2022/07/16 03:49:39;;;;;;;26.90;25.50;;;;;;;;;;5044605;28;20057;-71
2022/07/16 03:52:05;;;;;;;28.65;27.15;;;;;;;;;;5043561;28;20112;-71
2022/07/16 03:54:30;;;;;;;27.65;26.20;;;;;;;;;;5043429;28;20132;-72
2022/07/16 03:56:55;;;;;;;24.55;23.25;;;;;;;;;;5043119;28;20075;-71
2022/07/16 03:59:21;;;;;;;23.15;21.85;;;;;;;;;;5044451;28;20041;-72
2022/07/16 04:01:46;;;;;;;31.63;30.00;;;;;;;;;;5044551;28;20029;-72
2022/07/16 04:04:11;;;;;;;40.75;38.55;;;;;;;;;;5043138;28;20028;-72
2022/07/16 04:06:37;;;;;;;43.42;41.13;;;;;;;;;;5044094;28;20118;-72
2022/07/16 04:09:02;;;;;;;45.17;42.85;;;;;;;;;;5043089;28;20423;-73
2022/07/16 04:11:28;;;;;;;42.97;40.78;;;;;;;;;;5049902;28;20118;-72
2022/07/16 04:13:53;;;;;;;41.90;39.70;;;;;;;;;;5042000;28;20508;-72
2022/07/16 04:16:18;;;;;;;42.75;40.58;;;;;;;;;;5044024;28;20725;-72
2022/07/16 04:18:44;;;;;;;43.15;40.95;;;;;;;;;;5043242;28;20378;-73
2022/07/16 04:21:09;;;;;;;47.03;44.63;;;;;;;;;;5044397;28;20037;-73
2022/07/16 04:23:35;;;;;;;45.15;42.85;;;;;;;;;;5042218;28;20036;-73
2022/07/16 04:26:00;;;;;;;49.63;47.13;;;;;;;;;;5043921;28;20102;-73
2022/07/16 04:28:26;;;;;;;53.78;50.97;;;;;;;;;;5042963;28;20033;-72
2022/07/16 04:30:51;;;;;;;48.92;46.42;;;;;;;;;;5043603;28;20717;-71
2022/07/16 04:33:16;;;;;;;53.15;50.45;;;;;;;;;;5042599;28;20068;-72
2022/07/16 04:35:42;;;;;;;55.63;52.83;;;;;;;;;;5043057;28;20021;-72
2022/07/16 04:38:07;;;;;;;56.97;54.08;;;;;;;;;;5041519;28;20033;-72
2022/07/16 04:40:33;;;;;;;65.43;62.13;;;;;;;;;;5042293;28;20041;-72
2022/07/16 04:42:58;;;;;;;59.38;56.28;;;;;;;;;;5043499;28;20033;-72
2022/07/16 04:45:24;;;;;;;59.30;56.30;;;;;;;;;;5042318;28;20032;-71
2022/07/16 04:47:49;;;;;;;60.50;57.47;;;;;;;;;;5041623;28;20075;-70
2022/07/16 04:50:15;;;;;;;59.63;56.60;;;;;;;;;;5043592;28;20056;-69
2022/07/16 04:52:40;;;;;;;61.60;58.47;;;;;;;;;;5042917;28;20116;-72
2022/07/16 04:55:06;;;;;;;59.45;56.15;;;;;;;;;;5041220;28;20032;-70
2022/07/16 04:57:32;;;;;;;56.58;53.72;;;;;;;;;;5043237;28;20123;-71
2022/07/16 04:59:57;;;;;;;58.47;55.53;;;;;;;;;;5044046;28;20653;-72
2022/07/16 05:05:07;;;;;;;67.30;63.92;;;;;;;;;;5041767;28;20037;-72
2022/07/16 05:07:33;;;;;;;66.38;62.95;;;;;;;;;;5040323;28;20513;-71
2022/07/16 05:09:59;;;;;;;65.45;62.10;;;;;;;;;;5042031;28;20033;-71
2022/07/16 05:12:24;;;;;;;72.03;68.43;;;;;;;;;;5042053;28;20029;-73
2022/07/16 05:14:49;;;;;;;72.82;69.15;;;;;;;;;;5042713;28;20147;-72
2022/07/16 05:17:15;;;;;;;64.97;61.65;;;;;;;;;;5041583;28;20021;-72
2022/07/16 05:19:40;;;;;;;68.90;65.40;;;;;;;;;;5042176;28;20032;-72
2022/07/16 05:22:06;;;;;;;65.85;62.53;;;;;;;;;;5041551;28;20096;-72
2022/07/16 05:24:32;;;;;;;43.90;41.65;;;;;;;;;;5032478;28;20033;-70
2022/07/16 05:26:58;;;;;;;77.35;73.45;;;;;;;;;;5044898;28;20069;-71
2022/07/16 05:29:23;;;;;;;75.95;72.15;;;;;;;;;;5046136;28;20120;-73
2022/07/16 05:31:49;;;;;;;54.63;51.85;;;;;;;;;;5045104;28;20025;-72
2022/07/16 05:34:14;;;;;;;75.82;72.03;;;;;;;;;;5046246;28;20039;-73
2022/07/16 05:36:40;;;;;;;46.50;44.15;;;;;;;;;;5045970;28;20563;-74
2022/07/16 05:39:05;;;;;;;60.22;57.17;;;;;;;;;;5047053;28;20033;-74
2022/07/16 05:41:30;;;;;;;44.28;41.97;;;;;;;;;;5046343;28;20037;-74
2022/07/16 05:43:57;;;;;;;52.42;49.78;;;;;;;;;;5046648;28;20021;-73
2022/07/16 05:46:23;;;;;;;60.05;57.05;;;;;;;;;;5046296;28;20076;-74
2022/07/16 05:48:48;;;;;;;69.95;66.35;;;;;;;;;;5044373;28;20494;-73
2022/07/16 05:51:14;;;;;;;76.50;72.43;;;;;;;;;;5045941;28;20040;-74
2022/07/16 05:53:39;;;;;;;83.47;79.15;;;;;;;;;;5046488;28;20036;-74
2022/07/16 05:56:05;;;;;;;66.85;63.45;;;;;;;;;;5045241;28;20474;-75
2022/07/16 05:58:30;;;;;;;75.60;71.78;;;;;;;;;;5043740;28;20039;-74
2022/07/16 06:00:55;;;;;;;76.93;73.05;;;;;;;;;;5044033;28;20037;-74
2022/07/16 06:03:21;;;;;;;70.32;66.78;;;;;;;;;;5044974;28;20442;-74
2022/07/16 06:05:46;;;;;;;73.50;69.80;;;;;;;;;;5046174;28;20025;-74
2022/07/16 06:08:12;;;;;;;75.15;71.35;;;;;;;;;;5044951;28;20025;-71
2022/07/16 06:10:38;;;;;;;100.22;95.13;;;;;;;;;;5046295;28;20056;-72
2022/07/16 06:13:04;;;;;;;93.68;88.97;;;;;;;;;;5045735;28;20033;-74
2022/07/16 06:15:30;;;;;;;77.13;73.28;;;;;;;;;;5043305;28;20036;-75
2022/07/16 06:17:56;;;;;;;73.20;69.55;;;;;;;;;;5043274;28;20033;-74
2022/07/16 06:20:22;;;;;;;47.10;44.70;;;;;;;;;;5045904;28;20120;-75
2022/07/16 06:22:47;;;;;;;58.50;55.55;;;;;;;;;;5045601;28;20029;-75
2022/07/16 06:25:13;;;;;;;40.75;38.58;;;;;;;;;;5045657;28;20029;-74
2022/07/16 06:27:43;;;;;;;49.22;46.70;;;;;;;;;;5042028;28;20037;-74
2022/07/16 06:30:09;;;;;;;42.95;40.75;;;;;;;;;;5044295;28;20492;-74
2022/07/16 06:32:37;;;;;;;37.45;35.53;;;;;;;;;;5044884;28;20091;-74
2022/07/16 06:35:02;;;;;;;39.50;37.47;;;;;;;;;;5043336;28;20083;-73
2022/07/16 06:37:28;;;;;;;38.03;36.08;;;;;;;;;;5041136;28;20478;-71
2022/07/16 06:39:53;;;;;;;36.17;34.30;;;;;;;;;;5045939;28;20429;-72
2022/07/16 06:42:19;;;;;;;41.75;39.60;;;;;;;;;;5045266;28;20028;-72
2022/07/16 06:44:44;;;;;;;41.35;39.22;;;;;;;;;;5045468;28;20039;-72
2022/07/16 06:47:09;;;;;;;38.75;36.75;;;;;;;;;;5045303;28;20033;-70
2022/07/16 06:49:35;;;;;;;45.97;43.60;;;;;;;;;;5043207;28;20025;-72
2022/07/16 06:52:00;;;;;;;58.50;55.50;;;;;;;;;;5044344;28;20017;-71
2022/07/16 06:54:26;;;;;;;89.70;85.25;;;;;;;;;;5043812;28;20044;-72
2022/07/16 06:56:51;;;;;;;87.07;82.70;;;;;;;;;;5043996;28;20672;-72
2022/07/16 06:59:16;;;;;;;68.35;64.85;;;;;;;;;;5045661;28;20028;-72
2022/07/16 07:01:42;;;;;;;94.45;89.78;;;;;;;;;;5044996;28;20116;-72
2022/07/16 07:04:07;;;;;;;94.20;89.53;;;;;;;;;;5045600;28;20472;-71
2022/07/16 07:06:32;;;;;;;70.82;67.15;;;;;;;;;;5041408;28;20086;-71
2022/07/16 07:08:58;;;;;;;59.10;56.00;;;;;;;;;;5043984;28;20039;-71
2022/07/16 07:11:23;;;;;;;51.88;49.20;;;;;;;;;;5044985;28;20036;-71
2022/07/16 07:13:48;;;;;;;133.50;126.75;;;;;;;;;;5045000;28;20029;-71
2022/07/16 07:16:14;;;;;;;66.88;63.40;;;;;;;;;;5044126;28;20094;-71
2022/07/16 07:18:40;;;;;;;102.85;97.50;;;;;;;;;;5044567;28;20033;-70
2022/07/16 07:21:05;;;;;;;107.07;101.63;;;;;;;;;;5043867;28;20022;-69
2022/07/16 07:23:31;;;;;;;137.60;130.60;;;;;;;;;;5044565;28;20525;-70
2022/07/16 07:25:56;;;;;;;102.55;97.15;;;;;;;;;;5043439;28;20672;-70
2022/07/16 07:28:22;;;;;;;111.72;106.15;;;;;;;;;;5044792;28;20040;-70
2022/07/16 07:30:47;;;;;;;126.15;119.40;;;;;;;;;;5043638;28;20024;-70
2022/07/16 07:33:14;;;;;;;156.88;148.70;;;;;;;;;;5043008;28;20032;-70
2022/07/16 07:35:39;;;;;;;389.02;367.58;;;;;;;;;;5043530;28;20663;-70
2022/07/16 07:38:05;;;;;;;279.67;264.35;;;;;;;;;;5044844;28;20195;-70
2022/07/16 07:40:30;;;;;;;465.35;438.75;;;;;;;;;;5045388;28;20029;-70
2022/07/16 07:42:55;;;;;;;70.82;67.22;;;;;;;;;;5044398;28;20025;-69
2022/07/16 07:45:21;;;;;;;141.25;134.05;;;;;;;;;;5044167;28;20048;-70
2022/07/16 07:47:46;;;;;;;72.68;68.97;;;;;;;;;;5044328;28;20098;-69
2022/07/16 07:50:13;;;;;;;227.63;215.88;;;;;;;;;;5044643;28;20037;-70
2022/07/16 07:52:39;;;;;;;194.40;184.35;;;;;;;;;;5042870;28;20037;-70
2022/07/16 07:55:05;;;;;;;82.82;78.70;;;;;;;;;;5042612;28;20032;-70
2022/07/16 07:57:31;;;;;;;101.97;96.85;;;;;;;;;;5044628;28;20155;-70
2022/07/16 07:59:56;;;;;;;102.13;97.00;;;;;;;;;;5044937;28;20449;-68
2022/07/16 08:02:21;;;;;;;53.88;51.13;;;;;;;;;;5044270;28;20029;-70
2022/07/16 08:04:46;;;;;;;62.75;59.60;;;;;;;;;;5044098;28;20063;-69
2022/07/16 08:07:12;;;;;;;78.40;74.45;;;;;;;;;;5044416;28;20047;-69
2022/07/16 08:09:37;;;;;;;34.67;32.88;;;;;;;;;;5043739;28;20108;-68
2022/07/16 08:12:03;;;;;;;45.20;42.83;;;;;;;;;;5042775;28;20128;-68
2022/07/16 08:14:29;;;;;;;34.08;32.28;;;;;;;;;;5042162;28;20060;-69
2022/07/16 08:16:56;;;;;;;40.40;38.30;;;;;;;;;;5042749;28;20044;-68
2022/07/16 08:19:21;;;;;;;48.15;45.67;;;;;;;;;;5045055;28;20037;-69
2022/07/16 08:21:47;;;;;;;55.15;52.33;;;;;;;;;;5046165;28;20036;-70
2022/07/16 08:26:57;;;;;;;84.20;79.97;;;;;;;;;;5044624;28;20682;-70
2022/07/16 08:29:22;;;;;;;132.02;125.45;;;;;;;;;;5043901;28;20127;-70
2022/07/16 08:31:48;;;;;;;45.20;42.88;;;;;;;;;;5045153;28;20047;-70
2022/07/16 08:34:14;;;;;;;78.22;74.30;;;;;;;;;;5045657;28;20064;-70
2022/07/16 08:36:40;;;;;;;132.90;126.22;;;;;;;;;;5044671;28;20382;-72
2022/07/16 08:39:05;;;;;;;122.00;115.93;;;;;;;;;;5046137;28;20021;-71
2022/07/16 08:41:31;;;;;;;141.73;134.70;;;;;;;;;;5046202;28;20441;-71
2022/07/16 08:43:58;;;;;;;150.27;142.80;;;;;;;;;;5045973;28;20094;-70
2022/07/16 08:46:26;;;;;;;156.55;148.80;;;;;;;;;;5043887;28;20029;-70
2022/07/16 08:48:53;;;;;;;110.95;105.45;;;;;;;;;;5041793;28;20036;-71
2022/07/16 08:51:22;;;;;;;114.88;109.15;;;;;;;;;;5043538;28;20036;-71
2022/07/16 08:53:50;;;;;;;133.05;126.30;;;;;;;;;;5042634;28;20041;-72
2022/07/16 08:56:17;;;;;;;98.53;93.57;;;;;;;;;;5043533;28;20029;-71
2022/07/16 08:58:43;;;;;;;148.48;141.05;;;;;;;;;;5029058;28;20020;-71
2022/07/16 09:01:08;;;;;;;129.60;123.15;;;;;;;;;;5048359;28;20029;-71
2022/07/16 09:03:34;;;;;;;129.50;122.75;;;;;;;;;;5047715;28;20040;-69
2022/07/16 09:06:00;;;;;;;126.45;120.15;;;;;;;;;;5046319;28;20056;-69
2022/07/16 09:08:25;;;;;;;129.02;122.55;;;;;;;;;;5046380;28;20084;-70
2022/07/16 09:10:51;;;;;;;141.38;134.27;;;;;;;;;;5047273;28;20064;-71
2022/07/16 09:13:16;;;;;;;149.07;141.57;;;;;;;;;;5047841;28;20067;-71
2022/07/16 09:15:43;;;;;;;147.85;140.48;;;;;;;;;;5047352;28;20037;-74
2022/07/16 09:18:21;;;;;;;110.40;104.95;;;;;;;;;;5047030;28;20068;-71
2022/07/16 09:20:58;;;;;;;104.95;99.75;;;;;;;;;;5046940;28;20651;-72
2022/07/16 09:23:32;;;;;;;141.45;134.40;;;;;;;;;;5048655;28;20534;-70
2022/07/16 09:26:00;;;;;;;146.10;138.80;;;;;;;;;;5044096;28;20049;-71
2022/07/16 09:28:38;;;;;;;150.55;143.05;;;;;;;;;;5030886;28;20020;-70
2022/07/16 09:31:04;;;;;;;146.98;139.68;;;;;;;;;;5048467;28;20037;-72
2022/07/16 09:33:29;;;;;;;148.23;139.82;;;;;;;;;;5045659;28;20496;-70
2022/07/16 09:36:10;;;;;;;156.75;148.90;;;;;;;;;;5047092;28;20036;-70
2022/07/16 09:38:50;;;;;;;115.63;109.85;;;;;;;;;;5046961;28;20040;-70
2022/07/16 09:41:16;;;;;;;93.85;89.18;;;;;;;;;;5046976;28;20024;-71
2022/07/16 09:43:43;;;;;;;120.40;114.38;;;;;;;;;;5046540;28;20055;-70
2022/07/16 09:46:15;;;;;;;111.13;105.60;;;;;;;;;;5045930;28;20064;-72
2022/07/16 09:48:42;;;;;;;126.80;120.40;;;;;;;;;;5046623;28;20033;-70
2022/07/16 09:51:17;;;;;;;123.10;117.00;;;;;;;;;;5047095;28;20064;-69
2022/07/16 09:53:43;;;;;;;163.75;155.57;;;;;;;;;;5044801;28;20033;-70
2022/07/16 09:56:17;;;;;;;141.77;134.68;;;;;;;;;;5047179;28;20032;-70
2022/07/16 09:58:52;;;;;;;190.75;181.23;;;;;;;;;;5045583;28;20036;-71
2022/07/16 10:01:18;;;;;;;141.85;134.75;;;;;;;;;;5045984;28;20569;-71
2022/07/16 10:03:45;;;;;;;158.85;150.82;;;;;;;;;;5045976;28;20087;-72
2022/07/16 10:06:11;;;;;;;184.00;174.77;;;;;;;;;;5046735;28;20520;-70
2022/07/16 10:08:37;;;;;;;179.10;170.27;;;;;;;;;;5046756;28;20033;-73
2022/07/16 10:11:04;;;;;;;165.18;156.82;;;;;;;;;;5045072;28;20615;-73
2022/07/16 10:13:31;;;;;;;177.57;168.70;;;;;;;;;;5044244;28;20112;-72
2022/07/16 10:15:57;;;;;;;163.15;155.07;;;;;;;;;;5044453;28;20052;-72
2022/07/16 10:18:36;;;;;;;159.80;151.90;;;;;;;;;;5045327;28;20103;-73
2022/07/16 10:21:04;;;;;;;155.95;148.13;;;;;;;;;;5046604;28;20020;-72
2022/07/16 10:23:30;;;;;;;158.20;150.35;;;;;;;;;;5044273;28;20048;-72
2022/07/16 10:26:04;;;;;;;178.95;170.20;;;;;;;;;;5046415;28;20021;-73
2022/07/16 10:28:38;;;;;;;185.68;176.55;;;;;;;;;;5046430;28;20033;-73
2022/07/16 10:31:32;;;;;;;162.63;154.45;;;;;;;;;;5046304;28;20103;-74
2022/07/16 10:34:13;;;;;;;205.30;195.30;;;;;;;;;;5045782;28;20144;-71
2022/07/16 10:36:53;;;;;;;190.55;181.23;;;;;;;;;;5033019;28;20135;-71
2022/07/16 10:39:20;;;;;;;150.40;142.93;;;;;;;;;;5045718;28;20055;-72
2022/07/16 10:41:51;;;;;;;165.23;157.05;;;;;;;;;;5046165;28;20098;-72
2022/07/16 10:44:17;;;;;;;197.48;187.82;;;;;;;;;;5044681;28;20054;-72
2022/07/16 10:46:56;;;;;;;208.07;197.73;;;;;;;;;;5045759;28;20407;-72
2022/07/16 10:49:26;;;;;;;181.88;172.98;;;;;;;;;;5044114;28;20534;-72
2022/07/16 10:52:05;;;;;;;163.20;155.25;;;;;;;;;;5045012;28;20032;-72
2022/07/16 10:54:33;;;;;;;135.27;128.57;;;;;;;;;;5043973;28;20463;-73
2022/07/16 10:57:09;;;;;;;89.93;85.53;;;;;;;;;;5044454;28;20043;-71
2022/07/16 10:59:38;;;;;;;97.82;92.97;;;;;;;;;;5044180;28;20116;-73
2022/07/16 11:02:06;;;;;;;107.70;102.40;;;;;;;;;;5045116;28;20148;-67
2022/07/16 11:04:37;;;;;;;135.48;128.75;;;;;;;;;;5045589;28;20041;-66
2022/07/16 11:07:17;;;;;;;74.70;70.97;;;;;;;;;;5044909;28;20534;-67
2022/07/16 11:09:48;;;;;;;71.28;67.72;;;;;;;;;;5044904;28;20143;-67
2022/07/16 11:12:19;;;;;;;72.95;69.35;;;;;;;;;;5043388;28;20044;-67
2022/07/16 11:14:47;;;;;;;81.15;77.13;;;;;;;;;;5043674;28;20036;-66
2022/07/16 11:17:13;;;;;;;106.82;101.53;;;;;;;;;;5043612;28;20063;-67
2022/07/16 11:19:48;;;;;;;99.18;94.30;;;;;;;;;;5044371;28;20040;-68
2022/07/16 11:22:17;;;;;;;96.95;92.15;;;;;;;;;;5044042;28;20082;-68
2022/07/16 11:24:48;;;;;;;82.22;78.15;;;;;;;;;;5044941;28;20091;-67
2022/07/16 11:27:14;;;;;;;94.72;90.05;;;;;;;;;;5044656;28;20370;-67
2022/07/16 11:29:40;;;;;;;159.20;151.43;;;;;;;;;;5044346;28;20045;-67
2022/07/16 11:32:05;;;;;;;97.07;92.28;;;;;;;;;;5043942;28;20511;-66
2022/07/16 11:34:36;;;;;;;106.80;101.53;;;;;;;;;;5043927;28;20090;-66
2022/07/16 11:37:02;;;;;;;148.48;141.15;;;;;;;;;;5044109;28;20025;-66
2022/07/16 11:39:28;;;;;;;84.85;80.65;;;;;;;;;;5044453;28;20094;-67
2022/07/16 11:41:56;;;;;;;90.55;86.10;;;;;;;;;;5044045;28;20136;-66
2022/07/16 11:44:26;;;;;;;101.97;96.95;;;;;;;;;;5044086;28;20033;-65
2022/07/16 11:47:00;;;;;;;118.15;112.13;;;;;;;;;;5042566;28;20124;-68
2022/07/16 11:49:26;;;;;;;132.98;126.35;;;;;;;;;;5043438;28;20076;-69
2022/07/16 11:51:53;;;;;;;111.65;106.05;;;;;;;;;;5044223;28;20135;-70
2022/07/16 11:54:20;;;;;;;151.25;143.82;;;;;;;;;;5043626;28;20115;-70
2022/07/16 11:56:45;;;;;;;136.65;129.93;;;;;;;;;;5041383;28;20109;-71
2022/07/16 11:59:19;;;;;;;130.55;124.10;;;;;;;;;;5044476;28;20642;-70
2022/07/16 12:01:45;;;;;;;197.00;187.35;;;;;;;;;;5044322;28;20634;-69
2022/07/16 12:04:10;;;;;;;192.05;182.55;;;;;;;;;;5044259;28;20039;-71
2022/07/16 12:06:36;;;;;;;153.70;146.13;;;;;;;;;;5043510;28;20029;-72
2022/07/16 12:09:03;;;;;;;168.15;159.90;;;;;;;;;;5042814;28;20033;-70
2022/07/16 12:11:37;;;;;;;135.52;128.85;;;;;;;;;;5041158;28;20040;-70
2022/07/16 12:14:03;;;;;;;129.63;123.25;;;;;;;;;;5042124;28;20052;-69
2022/07/16 12:16:30;;;;;;;164.13;156.05;;;;;;;;;;5041727;28;20383;-71
2022/07/16 12:19:13;;;;;;;133.25;126.68;;;;;;;;;;5044210;28;20405;-72
2022/07/16 12:21:40;;;;;;;164.88;156.73;;;;;;;;;;5042492;28;20033;-68
2022/07/16 12:24:08;;;;;;;156.82;149.10;;;;;;;;;;5043520;28;20025;-67
2022/07/16 12:26:37;;;;;;;193.50;184.02;;;;;;;;;;5041378;28;20033;-67
2022/07/16 12:29:06;;;;;;;235.50;223.95;;;;;;;;;;5042283;28;20103;-70
2022/07/16 12:31:33;;;;;;;186.50;177.40;;;;;;;;;;5042171;28;20037;-73
2022/07/16 12:34:00;;;;;;;192.38;183.02;;;;;;;;;;5045252;28;20021;-68
2022/07/16 12:36:38;;;;;;;186.77;177.65;;;;;;;;;;5045545;28;20037;-67
2022/07/16 12:39:06;;;;;;;128.55;122.20;;;;;;;;;;5047152;28;20028;-67
2022/07/16 12:41:39;;;;;;;120.82;114.88;;;;;;;;;;5046210;28;20043;-67
2022/07/16 12:44:10;;;;;;;115.85;110.13;;;;;;;;;;5046631;28;20017;-67
2022/07/16 12:46:46;;;;;;;97.47;92.68;;;;;;;;;;5045243;28;20037;-67
2022/07/16 12:49:13;;;;;;;115.75;110.05;;;;;;;;;;5046376;28;20071;-67
2022/07/16 12:51:45;;;;;;;197.68;188.02;;;;;;;;;;5046659;28;20041;-67
2022/07/16 12:54:13;;;;;;;190.90;181.50;;;;;;;;;;5045391;28;20044;-67
2022/07/16 12:59:25;;;;;;;195.95;186.38;;;;;;;;;;5047051;28;20040;-68
2022/07/16 13:01:51;;;;;;;107.15;101.60;;;;;;;;;;5046082;28;20104;-67
2022/07/16 13:04:17;;;;;;;215.13;204.68;;;;;;;;;;5047620;28;20607;-67
2022/07/16 13:06:44;;;;;;;144.18;137.05;;;;;;;;;;5047243;28;20820;-67
2022/07/16 13:09:09;;;;;;;156.27;148.52;;;;;;;;;;5045960;28;20033;-67
2022/07/16 13:11:36;;;;;;;157.73;149.95;;;;;;;;;;5046018;28;20064;-67
2022/07/16 13:14:03;;;;;;;117.75;111.90;;;;;;;;;;5046656;28;20036;-68
2022/07/16 13:16:30;;;;;;;126.68;120.40;;;;;;;;;;5047297;28;20049;-67
2022/07/16 13:18:55;;;;;;;125.88;119.63;;;;;;;;;;5046832;28;20025;-68
2022/07/16 13:21:22;;;;;;;178.85;170.05;;;;;;;;;;5047201;28;20102;-68
2022/07/16 13:23:49;;;;;;;213.05;202.73;;;;;;;;;;5047285;28;20056;-68
2022/07/16 13:26:16;;;;;;;126.15;119.90;;;;;;;;;;5044851;28;20060;-68
2022/07/16 13:28:41;;;;;;;129.68;123.22;;;;;;;;;;5045827;28;20094;-67
2022/07/16 13:31:07;;;;;;;92.20;87.63;;;;;;;;;;5047007;28;20499;-67
2022/07/16 13:33:32;;;;;;;96.80;92.03;;;;;;;;;;5046879;28;20033;-67
2022/07/16 13:35:58;;;;;;;96.60;91.82;;;;;;;;;;5046443;28;20075;-66
2022/07/16 13:38:24;;;;;;;94.43;89.72;;;;;;;;;;5046834;28;20025;-66
2022/07/16 13:40:53;;;;;;;96.60;91.80;;;;;;;;;;5046331;28;20020;-67
2022/07/16 13:43:20;;;;;;;89.25;84.82;;;;;;;;;;5046326;28;20108;-66
2022/07/16 13:45:46;;;;;;;94.95;90.25;;;;;;;;;;5045982;28;20065;-66
2022/07/16 13:48:12;;;;;;;93.50;88.90;;;;;;;;;;5047292;28;20118;-66
2022/07/16 13:50:39;;;;;;;92.75;88.18;;;;;;;;;;5046664;28;20142;-67
2022/07/16 13:53:05;;;;;;;112.80;107.22;;;;;;;;;;5045065;28;20040;-67
2022/07/16 13:55:30;;;;;;;94.13;89.53;;;;;;;;;;5044361;28;20037;-66
2022/07/16 13:58:14;;;;;;;90.72;86.25;;;;;;;;;;5043296;28;20033;-66
2022/07/16 14:00:46;;;;;;;85.53;81.28;;;;;;;;;;5044341;28;20086;-66
2022/07/16 14:03:12;;;;;;;110.93;105.43;;;;;;;;;;5046561;28;20029;-68
2022/07/16 14:05:38;;;;;;;95.93;91.15;;;;;;;;;;5045959;28;20379;-68
2022/07/16 14:08:05;;;;;;;83.22;79.07;;;;;;;;;;5046311;28;20043;-68
2022/07/16 14:10:31;;;;;;;91.25;86.75;;;;;;;;;;5045410;28;20056;-68
2022/07/16 14:12:57;;;;;;;88.03;83.68;;;;;;;;;;5046334;28;20481;-67
2022/07/16 14:15:23;;;;;;;82.18;78.10;;;;;;;;;;5044906;28;20029;-68